createdAt,value
2022-08-17T00:01:35.757Z,93382.72
2022-08-17T00:04:19.403Z,93382.16
2022-08-17T00:06:49.077Z,93389.38
2022-08-17T00:09:18.704Z,93389.97
2022-08-17T00:12:42.639Z,93384.13
2022-08-17T00:14:35.059Z,93377.66
2022-08-17T00:17:03.858Z,93369.53
2022-08-17T00:19:32.579Z,93368.75
2022-08-17T00:22:32.534Z,93374.28
2022-08-17T00:24:47.531Z,93376.63
2022-08-17T00:27:14.295Z,93380.94
2022-08-17T00:29:41.107Z,93383.09
2022-08-17T00:33:23.255Z,93372.16
2022-08-17T00:34:55.267Z,93371.22
2022-08-17T00:37:22.050Z,93369.22
2022-08-17T00:39:48.811Z,93373.06
2022-08-17T00:42:18.432Z,93368.31
2022-08-17T00:44:45.334Z,93366.31
2022-08-17T00:47:12.053Z,93369.81
2022-08-17T00:49:38.790Z,93369.53
2022-08-17T00:52:15.346Z,93364.16
2022-08-17T00:54:45.417Z,93369.06
2022-08-17T00:57:20.145Z,93371.38
2022-08-17T01:00:02.368Z,93376.00
2022-08-17T01:02:41.170Z,93367.69
2022-08-17T01:05:14.867Z,93365.25
2022-08-17T01:07:42.821Z,93364.00
2022-08-17T01:10:59.138Z,93361.69
2022-08-17T01:13:02.515Z,93355.84
2022-08-17T01:15:36.448Z,93352.47
2022-08-17T01:18:07.814Z,93356.31
2022-08-17T01:20:48.122Z,93358.00
2022-08-17T01:23:20.778Z,93362.75
2022-08-17T01:25:57.059Z,93368.75
2022-08-17T01:28:53.161Z,93373.78
2022-08-17T01:31:14.115Z,93365.78
2022-08-17T01:33:40.848Z,93369.81
2022-08-17T01:36:08.353Z,93370.56
2022-08-17T01:38:36.987Z,93377.78
2022-08-17T01:41:10.693Z,93377.31
2022-08-17T01:43:54.906Z,93375.31
2022-08-17T01:46:28.086Z,93373.78
2022-08-17T01:48:56.966Z,93372.22
2022-08-17T01:51:27.799Z,93380.00
2022-08-17T01:53:58.158Z,93382.25
2022-08-17T01:56:26.308Z,93388.31
2022-08-17T01:58:53.658Z,93389.44
2022-08-17T02:01:23.241Z,93401.03
2022-08-17T02:03:59.387Z,93398.66
2022-08-17T02:06:30.564Z,93396.81
2022-08-17T02:09:02.737Z,93401.44
2022-08-17T02:11:33.535Z,93401.03
2022-08-17T02:14:03.620Z,93407.66
2022-08-17T02:16:37.872Z,93401.72
2022-08-17T02:19:07.428Z,93404.34
2022-08-17T02:21:34.953Z,93416.66
2022-08-17T02:24:02.390Z,93423.28
2022-08-17T02:26:29.062Z,93434.34
2022-08-17T02:28:55.827Z,93433.53
2022-08-17T02:31:22.603Z,93436.06
2022-08-17T02:33:56.653Z,93449.84
2022-08-17T02:36:31.224Z,93436.78
2022-08-17T02:38:58.561Z,93439.47
2022-08-17T02:41:25.573Z,93439.97
2022-08-17T02:43:53.557Z,93433.84
2022-08-17T02:46:20.330Z,93438.00
2022-08-17T02:48:47.405Z,93436.16
2022-08-17T02:51:14.635Z,93432.63
2022-08-17T02:53:41.350Z,93435.56
2022-08-17T02:56:08.187Z,93432.63
2022-08-17T02:58:36.062Z,93431.84
2022-08-17T03:01:07.357Z,93438.75
2022-08-17T03:03:35.193Z,93437.22
2022-08-17T03:06:01.897Z,93452.13
2022-08-17T03:08:28.923Z,93449.72
2022-08-17T03:10:56.260Z,93449.13
2022-08-17T03:13:23.516Z,93453.53
2022-08-17T03:15:50.679Z,93458.31
2022-08-17T03:18:25.264Z,93450.81
2022-08-17T03:21:00.840Z,93445.44
2022-08-17T03:23:29.609Z,93438.22
2022-08-17T03:25:57.170Z,93438.56
2022-08-17T03:28:24.768Z,93439.34
2022-08-17T03:30:52.076Z,93446.09
2022-08-17T03:33:19.435Z,93447.78
2022-08-17T03:35:47.100Z,93443.78
2022-08-17T03:38:17.002Z,93451.09
2022-08-17T03:40:56.488Z,93456.91
2022-08-17T03:43:29.027Z,93457.69
2022-08-17T03:46:28.294Z,93461.94
2022-08-17T03:49:21.004Z,93459.88
2022-08-17T03:52:06.345Z,93449.56
2022-08-17T03:54:51.654Z,93450.03
2022-08-17T03:57:19.240Z,93455.88
2022-08-17T03:59:46.460Z,93461.59
2022-08-17T04:02:37.546Z,93465.91
2022-08-17T04:05:04.566Z,93455.78
2022-08-17T04:07:31.839Z,93457.47
2022-08-17T04:09:59.472Z,93461.00
2022-08-17T04:12:30.804Z,93460.53
2022-08-17T04:14:58.305Z,93458.53
2022-08-17T04:17:27.600Z,93452.97
2022-08-17T04:19:55.044Z,93457.44
2022-08-17T04:22:32.446Z,93447.59
2022-08-17T04:25:32.233Z,93445.75
2022-08-17T04:28:00.874Z,93446.38
2022-08-17T04:30:29.778Z,93455.13
2022-08-17T04:33:06.243Z,93451.41
2022-08-17T04:35:42.360Z,93437.84
2022-08-17T04:38:13.145Z,93436.00
2022-08-17T04:40:58.865Z,93444.47
2022-08-17T04:43:27.768Z,93438.44
2022-08-17T04:45:57.762Z,93441.94
2022-08-17T04:48:28.087Z,93435.09
2022-08-17T04:51:07.210Z,93445.63
2022-08-17T04:53:33.912Z,93440.91
2022-08-17T04:56:00.557Z,93450.59
2022-08-17T04:58:27.627Z,93448.94
2022-08-17T05:00:54.315Z,93441.09
2022-08-17T05:03:21.155Z,93443.69
2022-08-17T05:05:49.547Z,93445.13
2022-08-17T05:08:18.592Z,93458.47
2022-08-17T05:10:46.824Z,93446.78
2022-08-17T05:13:20.135Z,93449.75
2022-08-17T05:15:48.234Z,93446.72
2022-08-17T05:18:16.495Z,93448.78
2022-08-17T05:20:44.152Z,93457.31
2022-08-17T05:23:14.831Z,93457.22
2022-08-17T05:25:47.485Z,93458.06
2022-08-17T05:28:24.026Z,93453.25
2022-08-17T05:30:56.676Z,93451.72
2022-08-17T05:33:29.284Z,93464.63
2022-08-17T05:35:58.209Z,93471.66
2022-08-17T05:38:26.947Z,93483.19
2022-08-17T05:40:54.725Z,93475.25
2022-08-17T05:43:25.056Z,93481.16
2022-08-17T05:46:01.719Z,93489.63
2022-08-17T05:48:39.676Z,93481.84
2022-08-17T05:51:31.425Z,93487.38
2022-08-17T05:54:21.131Z,93481.25
2022-08-17T05:57:08.614Z,93486.19
2022-08-17T05:59:39.920Z,93487.56
2022-08-17T06:02:18.838Z,93484.78
2022-08-17T06:05:05.878Z,93492.50
2022-08-17T06:07:56.913Z,93493.81
2022-08-17T06:10:40.908Z,93498.16
2022-08-17T06:13:36.695Z,93503.78
2022-08-17T06:16:33.915Z,93490.75
2022-08-17T06:19:01.050Z,93501.09
2022-08-17T06:21:33.714Z,93502.47
2022-08-17T06:24:17.869Z,93506.91
2022-08-17T06:26:45.499Z,93513.03
2022-08-17T06:29:18.602Z,93511.53
2022-08-17T06:31:46.079Z,93495.09
2022-08-17T06:34:12.836Z,93481.78
2022-08-17T06:37:21.846Z,93484.53
2022-08-17T06:40:14.509Z,93482.63
2022-08-17T06:43:06.076Z,93483.44
2022-08-17T06:45:49.328Z,93489.47
2022-08-17T06:48:32.342Z,93480.47
2022-08-17T06:51:04.931Z,93481.53
2022-08-17T06:53:53.215Z,93482.06
2022-08-17T06:56:54.227Z,93471.94
2022-08-17T06:59:55.723Z,93471.59
2022-08-17T07:02:52.820Z,93471.84
2022-08-17T07:05:24.303Z,93471.09
2022-08-17T07:08:11.811Z,93469.31
2022-08-17T07:10:47.202Z,93482.88
2022-08-17T07:13:41.023Z,93491.59
2022-08-17T07:16:22.166Z,93503.44
2022-08-17T07:18:53.618Z,93496.19
2022-08-17T07:21:38.468Z,93511.97
2022-08-17T07:24:28.123Z,93512.22
2022-08-17T07:27:10.622Z,93514.00
2022-08-17T07:29:47.737Z,93511.59
2022-08-17T07:32:19.063Z,93514.66
2022-08-17T07:35:31.222Z,93508.34
2022-08-17T07:38:25.584Z,93518.88
2022-08-17T07:41:02.648Z,93520.50
2022-08-17T07:43:32.830Z,93512.53
2022-08-17T07:46:35.898Z,93514.34
2022-08-17T07:49:08.461Z,93520.03
2022-08-17T07:51:44.087Z,93512.63
2022-08-17T07:54:18.361Z,93509.13
2022-08-17T07:56:55.817Z,93520.72
2022-08-17T07:59:36.569Z,93520.63
2022-08-17T08:02:23.171Z,93517.59
2022-08-17T08:05:03.330Z,93521.72
2022-08-17T08:07:39.385Z,93520.41
2022-08-17T08:10:14.112Z,93520.56
2022-08-17T08:12:48.937Z,93506.13
2022-08-17T08:15:22.331Z,93508.78
2022-08-17T08:17:58.575Z,93498.47
2022-08-17T08:20:53.015Z,93495.69
2022-08-17T08:23:44.558Z,93486.13
2022-08-17T08:26:20.412Z,93486.88
2022-08-17T08:29:18.275Z,93490.13
2022-08-17T08:32:11.678Z,93487.81
2022-08-17T08:34:58.623Z,93481.25
2022-08-17T08:38:05.932Z,93481.00
2022-08-17T08:40:35.770Z,93489.31
2022-08-17T08:43:22.305Z,93496.31
2022-08-17T08:46:21.046Z,93506.78
2022-08-17T08:49:06.562Z,93508.28
2022-08-17T08:51:57.099Z,93506.78
2022-08-17T08:54:33.464Z,93507.06
2022-08-17T08:57:30.757Z,93504.16
2022-08-17T09:00:17.130Z,93499.88
2022-08-17T09:02:57.634Z,93511.09
2022-08-17T09:05:39.241Z,93516.88
2022-08-17T09:08:53.514Z,93517.63
2022-08-17T09:11:35.808Z,93516.03
2022-08-17T09:14:32.771Z,93511.75
2022-08-17T09:17:24.392Z,93514.88
2022-08-17T09:20:27.973Z,93518.44
2022-08-17T09:23:32.481Z,93524.16
2022-08-17T09:26:09.773Z,93525.25
2022-08-17T09:28:42.585Z,93530.41
2022-08-17T09:31:20.281Z,93530.22
2022-08-17T09:33:48.996Z,93516.00
2022-08-17T09:36:40.329Z,93523.97
2022-08-17T09:39:24.774Z,93526.41
2022-08-17T09:42:29.207Z,93527.13
2022-08-17T09:45:15.359Z,93525.91
2022-08-17T09:47:58.051Z,93517.44
2022-08-17T09:50:55.263Z,93514.19
2022-08-17T09:53:17.248Z,93525.94
2022-08-17T09:56:08.851Z,93536.53
2022-08-17T09:59:06.548Z,93527.78
2022-08-17T10:01:44.438Z,93531.69
2022-08-17T10:04:29.363Z,93533.03
2022-08-17T10:06:57.664Z,93533.63
2022-08-17T10:09:46.695Z,93534.81
2022-08-17T10:12:36.914Z,93532.97
2022-08-17T10:15:26.357Z,93531.66
2022-08-17T10:18:20.661Z,93526.78
2022-08-17T10:21:20.540Z,93528.78
2022-08-17T10:24:11.574Z,93528.22
2022-08-17T10:26:55.832Z,93536.50
2022-08-17T10:29:48.802Z,93526.81
2022-08-17T10:32:35.738Z,93531.59
2022-08-17T10:35:33.932Z,93534.72
2022-08-17T10:38:29.210Z,93529.91
2022-08-17T10:41:02.800Z,93536.19
2022-08-17T10:43:41.777Z,93529.22
2022-08-17T10:46:31.238Z,93542.94
2022-08-17T10:49:17.005Z,93545.50
2022-08-17T10:51:47.838Z,93553.09
2022-08-17T10:54:35.579Z,93550.44
2022-08-17T10:57:22.679Z,93568.41
2022-08-17T10:59:51.892Z,93581.41
2022-08-17T11:02:53.991Z,93575.28
2022-08-17T11:05:43.460Z,93562.09
2022-08-17T11:08:19.989Z,93543.25
2022-08-17T11:11:17.771Z,93557.41
2022-08-17T11:14:11.097Z,93570.47
2022-08-17T11:16:47.829Z,93570.66
2022-08-17T11:19:43.963Z,93587.78
2022-08-17T11:22:42.609Z,93583.06
2022-08-17T11:25:19.610Z,93579.94
2022-08-17T11:27:53.756Z,93577.31
2022-08-17T11:30:40.976Z,93581.34
2022-08-17T11:33:28.763Z,93564.81
2022-08-17T11:36:13.366Z,93573.41
2022-08-17T11:38:57.874Z,93566.38
2022-08-17T11:41:38.510Z,93552.69
2022-08-17T11:44:52.631Z,93554.69
2022-08-17T11:48:26.615Z,93559.09
2022-08-17T11:51:28.425Z,93544.56
2022-08-17T11:54:21.538Z,93539.13
2022-08-17T11:56:48.679Z,93541.22
2022-08-17T11:59:43.740Z,93531.88
2022-08-17T12:02:31.465Z,93537.50
2022-08-17T12:05:17.192Z,93532.63
2022-08-17T12:08:01.024Z,93544.56
2022-08-17T12:10:34.261Z,93530.16
2022-08-17T12:13:06.869Z,93534.91
2022-08-17T12:15:42.129Z,93525.63
2022-08-17T12:18:18.150Z,93534.16
2022-08-17T12:20:56.117Z,93533.84
2022-08-17T12:23:29.201Z,93527.31
2022-08-17T12:26:04.948Z,93528.50
2022-08-17T12:28:35.955Z,93521.91
2022-08-17T12:31:07.898Z,93520.25
2022-08-17T12:33:36.868Z,93521.69
2022-08-17T12:36:08.503Z,93525.06
2022-08-17T12:38:38.048Z,93523.53
2022-08-17T12:41:25.740Z,93526.13
2022-08-17T12:44:04.585Z,93520.75
2022-08-17T12:46:48.482Z,93513.41
2022-08-17T12:49:26.369Z,93518.81
2022-08-17T12:52:02.090Z,93513.84
2022-08-17T12:54:42.195Z,93509.88
2022-08-17T12:57:20.689Z,93518.16
2022-08-17T12:59:54.536Z,93518.94
2022-08-17T13:02:39.125Z,93510.47
2022-08-17T13:05:08.206Z,93495.75
2022-08-17T13:07:44.659Z,93509.88
2022-08-17T13:10:28.604Z,93507.03
2022-08-17T13:13:03.831Z,93506.00
2022-08-17T13:15:44.816Z,93506.34
2022-08-17T13:18:53.744Z,93506.34
2022-08-17T13:21:22.193Z,93505.78
2022-08-17T13:24:04.047Z,93497.47
2022-08-17T13:26:38.083Z,93498.38
2022-08-17T13:29:08.287Z,93501.38
2022-08-17T13:31:49.809Z,93493.56
2022-08-17T13:34:26.863Z,93480.69
2022-08-17T13:37:33.549Z,93476.06
2022-08-17T13:40:09.413Z,93469.72
2022-08-17T13:42:53.081Z,93477.97
2022-08-17T13:45:34.919Z,93472.13
2022-08-17T13:48:06.314Z,93467.72
2022-08-17T13:50:33.724Z,93470.78
2022-08-17T13:53:00.626Z,93463.63
2022-08-17T13:55:28.837Z,93452.63
2022-08-17T13:58:06.461Z,93447.28
2022-08-17T14:00:36.336Z,93447.28
2022-08-17T14:03:05.348Z,93441.47
2022-08-17T14:05:32.386Z,93452.13
2022-08-17T14:08:06.593Z,93450.72
2022-08-17T14:10:36.588Z,93444.72
2022-08-17T14:13:04.221Z,93441.78
2022-08-17T14:15:55.400Z,93445.03
2022-08-17T14:18:45.655Z,93438.94
2022-08-17T14:21:08.239Z,93436.44
2022-08-17T14:23:36.836Z,93428.38
2022-08-17T14:26:04.587Z,93420.63
2022-08-17T14:28:31.979Z,93424.66
2022-08-17T14:31:00.699Z,93419.50
2022-08-17T14:33:28.381Z,93430.50
2022-08-17T14:35:55.906Z,93437.97
2022-08-17T14:38:22.602Z,93441.75
2022-08-17T14:40:49.369Z,93434.56
2022-08-17T14:43:16.056Z,93436.69
2022-08-17T14:45:43.457Z,93430.91
2022-08-17T14:48:10.602Z,93437.72
2022-08-17T14:50:41.062Z,93427.94
2022-08-17T14:53:11.497Z,93422.81
2022-08-17T14:55:40.440Z,93420.75
2022-08-17T14:58:08.690Z,93429.44
2022-08-17T15:00:35.519Z,93427.66
2022-08-17T15:03:03.080Z,93431.50
2022-08-17T15:05:33.968Z,93434.28
2022-08-17T15:08:01.754Z,93428.81
2022-08-17T15:10:29.827Z,93424.28
2022-08-17T15:12:56.894Z,93419.81
2022-08-17T15:15:24.240Z,93424.56
2022-08-17T15:17:51.702Z,93415.66
2022-08-17T15:20:25.469Z,93416.56
2022-08-17T15:22:56.001Z,93416.63
2022-08-17T15:25:24.993Z,93410.88
2022-08-17T15:27:52.154Z,93423.03
2022-08-17T15:30:19.734Z,93428.88
2022-08-17T15:32:51.085Z,93421.31
2022-08-17T15:35:27.191Z,93413.78
2022-08-17T15:38:04.660Z,93416.84
2022-08-17T15:40:40.257Z,93413.38
2022-08-17T15:43:28.204Z,93404.19
2022-08-17T15:46:00.629Z,93411.88
2022-08-17T15:48:41.216Z,93403.44
2022-08-17T15:51:19.884Z,93407.22
2022-08-17T15:53:50.021Z,93390.66
2022-08-17T15:56:17.223Z,93377.28
2022-08-17T15:58:46.600Z,93376.03
2022-08-17T16:01:18.450Z,93371.22
2022-08-17T16:04:05.112Z,93385.25
2022-08-17T16:06:34.637Z,93376.56
2022-08-17T16:09:01.316Z,93374.06
2022-08-17T16:11:28.039Z,93362.41
2022-08-17T16:13:56.210Z,93361.97
2022-08-17T16:16:23.704Z,93356.91
2022-08-17T16:18:53.555Z,93354.75
2022-08-17T16:21:25.767Z,93365.19
2022-08-17T16:24:05.606Z,93356.97
2022-08-17T16:26:39.902Z,93359.16
2022-08-17T16:29:07.625Z,93371.03
2022-08-17T16:31:35.980Z,93362.06
2022-08-17T16:34:17.626Z,93355.94
2022-08-17T16:36:54.631Z,93355.41
2022-08-17T16:39:26.662Z,93358.75
2022-08-17T16:41:53.593Z,93352.03
2022-08-17T16:44:21.821Z,93352.66
2022-08-17T16:46:50.384Z,93357.75
2022-08-17T16:49:35.968Z,93373.47
2022-08-17T16:52:07.143Z,93402.88
2022-08-17T16:54:35.345Z,93424.88
2022-08-17T16:57:04.957Z,93452.53
2022-08-17T16:59:41.893Z,93484.91
2022-08-17T17:02:13.100Z,93487.94
2022-08-17T17:04:56.155Z,93471.91
2022-08-17T17:07:52.319Z,93442.88
2022-08-17T17:10:26.236Z,93426.34
2022-08-17T17:13:02.006Z,93437.03
2022-08-17T17:15:42.431Z,93433.47
2022-08-17T17:18:11.478Z,93449.25
2022-08-17T17:20:48.465Z,93462.44
2022-08-17T17:23:36.501Z,93488.28
2022-08-17T17:26:13.922Z,93484.44
2022-08-17T17:29:47.398Z,93499.63
2022-08-17T17:32:25.490Z,93491.53
2022-08-17T17:35:00.618Z,93502.38
2022-08-17T17:37:33.847Z,93495.94
2022-08-17T17:40:06.726Z,93482.53
2022-08-17T17:42:34.015Z,93482.19
2022-08-17T17:45:06.138Z,93479.69
2022-08-17T17:47:34.380Z,93488.78
2022-08-17T17:50:02.648Z,93477.13
2022-08-17T17:52:46.295Z,93493.16
2022-08-17T17:55:35.282Z,93498.50
2022-08-17T17:58:26.122Z,93489.34
2022-08-17T18:01:18.538Z,93485.06
2022-08-17T18:04:01.362Z,93478.22
2022-08-17T18:06:33.812Z,93470.88
2022-08-17T18:09:24.153Z,93469.31
2022-08-17T18:11:59.585Z,93461.91
2022-08-17T18:14:50.930Z,93455.13
2022-08-17T18:17:18.294Z,93464.13
2022-08-17T18:19:45.272Z,93466.44
2022-08-17T18:22:22.113Z,93462.63
2022-08-17T18:24:56.115Z,93455.88
2022-08-17T18:27:37.823Z,93455.53
2022-08-17T18:30:28.840Z,93455.50
2022-08-17T18:33:23.119Z,93464.00
2022-08-17T18:35:58.868Z,93461.91
2022-08-17T18:38:37.298Z,93450.84
2022-08-17T18:41:18.536Z,93454.94
2022-08-17T18:43:59.099Z,93443.09
2022-08-17T18:46:35.116Z,93450.31
2022-08-17T18:49:14.623Z,93453.25
2022-08-17T18:51:43.292Z,93457.47
2022-08-17T18:54:14.097Z,93465.97
2022-08-17T18:56:52.621Z,93469.50
2022-08-17T18:59:27.016Z,93468.03
2022-08-17T19:01:59.158Z,93479.72
2022-08-17T19:04:40.146Z,93485.56
2022-08-17T19:07:26.253Z,93484.56
2022-08-17T19:10:06.626Z,93486.47
2022-08-17T19:12:40.347Z,93491.19
2022-08-17T19:15:10.162Z,93486.03
2022-08-17T19:17:55.172Z,93481.66
2022-08-17T19:20:37.602Z,93479.72
2022-08-17T19:23:15.482Z,93471.63
2022-08-17T19:25:50.413Z,93457.63
2022-08-17T19:28:27.218Z,93456.88
2022-08-17T19:31:02.910Z,93460.44
2022-08-17T19:33:31.368Z,93457.66
2022-08-17T19:36:32.802Z,93449.38
2022-08-17T19:39:38.133Z,93447.81
2022-08-17T19:42:28.776Z,93438.69
2022-08-17T19:45:37.155Z,93441.38
2022-08-17T19:48:18.613Z,93453.38
2022-08-17T19:51:26.428Z,93440.97
2022-08-17T19:54:15.028Z,93444.38
2022-08-17T19:56:55.687Z,93437.44
2022-08-17T19:59:50.241Z,93436.94
2022-08-17T20:02:33.398Z,93429.75
2022-08-17T20:05:07.219Z,93420.44
2022-08-17T20:07:52.012Z,93437.84
2022-08-17T20:10:41.386Z,93441.88
2022-08-17T20:13:14.782Z,93450.84
2022-08-17T20:15:45.109Z,93462.19
2022-08-17T20:18:26.095Z,93469.59
2022-08-17T20:21:02.977Z,93482.56
2022-08-17T20:24:00.833Z,93492.28
2022-08-17T20:26:51.229Z,93503.22
2022-08-17T20:29:40.286Z,93491.03
2022-08-17T20:32:17.526Z,93482.88
2022-08-17T20:34:47.158Z,93500.66
2022-08-17T20:37:14.190Z,93503.56
2022-08-17T20:39:45.910Z,93512.78
2022-08-17T20:42:15.462Z,93510.97
2022-08-17T20:44:43.342Z,93506.47
2022-08-17T20:47:17.134Z,93517.06
2022-08-17T20:49:47.079Z,93527.50
2022-08-17T20:52:49.154Z,93541.59
2022-08-17T20:55:33.949Z,93571.44
2022-08-17T20:58:15.926Z,93577.78
2022-08-17T21:00:48.722Z,93589.28
2022-08-17T21:03:24.553Z,93611.28
2022-08-17T21:05:59.757Z,93621.66
2022-08-17T21:08:34.811Z,93639.00
2022-08-17T21:12:03.134Z,93674.00
2022-08-17T21:14:26.183Z,93730.91
2022-08-17T21:16:55.299Z,93759.28
2022-08-17T21:20:00.511Z,93763.56
2022-08-17T21:22:31.172Z,93731.66
2022-08-17T21:25:27.027Z,93719.28
2022-08-17T21:28:20.238Z,93718.00
2022-08-17T21:30:58.827Z,93736.78
2022-08-17T21:33:31.754Z,93751.41
2022-08-17T21:36:11.501Z,93750.03
2022-08-17T21:38:42.149Z,93749.81
2022-08-17T21:41:20.819Z,93763.28
2022-08-17T21:43:51.114Z,93763.91
2022-08-17T21:46:27.257Z,93781.16
2022-08-17T21:48:55.272Z,93784.69
2022-08-17T21:51:26.059Z,93779.31
2022-08-17T21:53:59.763Z,93782.22
2022-08-17T21:56:30.718Z,93770.69
2022-08-17T21:59:01.646Z,93770.72
2022-08-17T22:01:33.546Z,93766.13
2022-08-17T22:04:17.855Z,93762.00
2022-08-17T22:06:52.211Z,93767.59
2022-08-17T22:09:46.464Z,93767.81
2022-08-17T22:12:18.805Z,93774.25
2022-08-17T22:14:57.157Z,93785.56
2022-08-17T22:17:29.639Z,93795.00
2022-08-17T22:20:01.359Z,93796.00
2022-08-17T22:22:59.990Z,93776.81
2022-08-17T22:25:28.254Z,93745.34
2022-08-17T22:28:00.261Z,93740.75
2022-08-17T22:30:36.055Z,93730.00
2022-08-17T22:33:33.494Z,93735.34
2022-08-17T22:36:25.153Z,93728.09
2022-08-17T22:39:08.445Z,93731.44
2022-08-17T22:41:48.051Z,93716.13
2022-08-17T22:44:27.175Z,93715.59
2022-08-17T22:47:11.190Z,93705.03
2022-08-17T22:49:53.197Z,93707.50
2022-08-17T22:52:34.637Z,93703.03
2022-08-17T22:55:34.223Z,93705.41
2022-08-17T22:58:20.460Z,93702.25
2022-08-17T23:00:49.122Z,93702.63
2022-08-17T23:03:22.621Z,93704.06
2022-08-17T23:06:06.594Z,93698.59
2022-08-17T23:08:36.060Z,93699.97
2022-08-17T23:11:02.866Z,93697.91
2022-08-17T23:13:33.084Z,93689.50
2022-08-17T23:16:00.004Z,93685.56
2022-08-17T23:18:27.317Z,93685.38
2022-08-17T23:20:54.254Z,93678.81
2022-08-17T23:23:23.674Z,93673.88
2022-08-17T23:25:50.716Z,93677.16
2022-08-17T23:28:18.751Z,93680.72
2022-08-17T23:30:48.439Z,93686.94
2022-08-17T23:33:34.222Z,93681.91
2022-08-17T23:36:01.851Z,93692.94
2022-08-17T23:38:28.735Z,93696.22
2022-08-17T23:40:59.874Z,93703.50
2022-08-17T23:43:28.225Z,93709.59
2022-08-17T23:45:59.658Z,93707.38
2022-08-17T23:48:36.010Z,93701.59
2022-08-17T23:51:08.666Z,93701.13
2022-08-17T23:53:36.706Z,93691.34
2022-08-17T23:56:09.672Z,93701.06
2022-08-17T23:58:38.651Z,93694.44
